sensor_id;sensor_type;location;lat;lon;timestamp;P1;durP1;ratioP1;P2;durP2;ratioP2
15006;SDS011;7599;50.748;13.142;2023-03-23T00:00:41;3.40;;;1.35;;
15006;SDS011;7599;50.748;13.142;2023-03-23T00:03:43;2.80;;;1.20;;
15006;SDS011;7599;50.748;13.142;2023-03-23T00:06:44;3.80;;;1.17;;
15006;SDS011;7599;50.748;13.142;2023-03-23T00:09:46;2.70;;;1.10;;
15006;SDS011;7599;50.748;13.142;2023-03-23T00:12:54;5.05;;;2.78;;
15006;SDS011;7599;50.748;13.142;2023-03-23T00:15:57;2.85;;;1.10;;
15006;SDS011;7599;50.748;13.142;2023-03-23T00:18:59;3.28;;;2.33;;
15006;SDS011;7599;50.748;13.142;2023-03-23T00:22:03;2.22;;;1.00;;
15006;SDS011;7599;50.748;13.142;2023-03-23T00:25:04;2.60;;;1.25;;
15006;SDS011;7599;50.748;13.142;2023-03-23T00:28:07;2.15;;;1.10;;
15006;SDS011;7599;50.748;13.142;2023-03-23T00:31:09;2.50;;;1.20;;
15006;SDS011;7599;50.748;13.142;2023-03-23T00:34:11;2.92;;;0.88;;
15006;SDS011;7599;50.748;13.142;2023-03-23T00:37:12;2.08;;;0.95;;
15006;SDS011;7599;50.748;13.142;2023-03-23T00:40:16;2.03;;;1.08;;
15006;SDS011;7599;50.748;13.142;2023-03-23T00:43:20;1.75;;;0.85;;
15006;SDS011;7599;50.748;13.142;2023-03-23T00:46:24;2.60;;;1.23;;
15006;SDS011;7599;50.748;13.142;2023-03-23T00:49:26;1.38;;;0.88;;
15006;SDS011;7599;50.748;13.142;2023-03-23T00:52:28;2.70;;;1.10;;
15006;SDS011;7599;50.748;13.142;2023-03-23T00:55:29;2.83;;;1.20;;
15006;SDS011;7599;50.748;13.142;2023-03-23T00:58:32;1.80;;;0.90;;
15006;SDS011;7599;50.748;13.142;2023-03-23T01:01:34;2.70;;;1.40;;
15006;SDS011;7599;50.748;13.142;2023-03-23T01:04:37;3.08;;;1.23;;
15006;SDS011;7599;50.748;13.142;2023-03-23T01:07:39;2.40;;;0.90;;
15006;SDS011;7599;50.748;13.142;2023-03-23T01:10:41;1.95;;;1.00;;
15006;SDS011;7599;50.748;13.142;2023-03-23T01:13:43;3.25;;;1.20;;
15006;SDS011;7599;50.748;13.142;2023-03-23T01:16:45;2.10;;;1.05;;
15006;SDS011;7599;50.748;13.142;2023-03-23T01:19:47;1.83;;;0.90;;
15006;SDS011;7599;50.748;13.142;2023-03-23T01:22:48;2.42;;;1.23;;
15006;SDS011;7599;50.748;13.142;2023-03-23T01:25:50;1.83;;;0.82;;
15006;SDS011;7599;50.748;13.142;2023-03-23T01:28:55;2.13;;;1.00;;
15006;SDS011;7599;50.748;13.142;2023-03-23T01:31:57;2.17;;;1.20;;
15006;SDS011;7599;50.748;13.142;2023-03-23T01:34:59;2.20;;;0.80;;
15006;SDS011;7599;50.748;13.142;2023-03-23T01:38:01;3.40;;;1.13;;
15006;SDS011;7599;50.748;13.142;2023-03-23T01:41:02;3.33;;;1.15;;
15006;SDS011;7599;50.748;13.142;2023-03-23T01:44:06;2.67;;;1.23;;
15006;SDS011;7599;50.748;13.142;2023-03-23T01:47:29;2.40;;;1.25;;
15006;SDS011;7599;50.748;13.142;2023-03-23T01:50:31;2.95;;;1.30;;
15006;SDS011;7599;50.748;13.142;2023-03-23T01:53:38;3.08;;;1.02;;
15006;SDS011;7599;50.748;13.142;2023-03-23T01:56:43;2.63;;;1.08;;
15006;SDS011;7599;50.748;13.142;2023-03-23T01:59:50;1.90;;;1.00;;
15006;SDS011;7599;50.748;13.142;2023-03-23T02:02:54;1.17;;;0.90;;
15006;SDS011;7599;50.748;13.142;2023-03-23T02:05:58;1.75;;;1.08;;
15006;SDS011;7599;50.748;13.142;2023-03-23T02:08:59;2.85;;;1.20;;
15006;SDS011;7599;50.748;13.142;2023-03-23T02:12:02;2.30;;;1.13;;
15006;SDS011;7599;50.748;13.142;2023-03-23T02:15:06;2.90;;;1.30;;
15006;SDS011;7599;50.748;13.142;2023-03-23T02:18:08;1.85;;;1.00;;
15006;SDS011;7599;50.748;13.142;2023-03-23T02:21:33;2.35;;;1.48;;
15006;SDS011;7599;50.748;13.142;2023-03-23T02:24:56;2.15;;;1.00;;
15006;SDS011;7599;50.748;13.142;2023-03-23T02:28:08;2.50;;;1.20;;
15006;SDS011;7599;50.748;13.142;2023-03-23T02:31:35;3.17;;;1.17;;
15006;SDS011;7599;50.748;13.142;2023-03-23T02:34:47;3.95;;;2.50;;
15006;SDS011;7599;50.748;13.142;2023-03-23T02:37:52;2.97;;;1.10;;
15006;SDS011;7599;50.748;13.142;2023-03-23T02:41:00;3.08;;;1.20;;
15006;SDS011;7599;50.748;13.142;2023-03-23T02:44:03;1.63;;;0.90;;
15006;SDS011;7599;50.748;13.142;2023-03-23T02:47:06;1.67;;;0.90;;
15006;SDS011;7599;50.748;13.142;2023-03-23T02:50:15;2.33;;;1.00;;
15006;SDS011;7599;50.748;13.142;2023-03-23T02:53:21;2.35;;;1.00;;
15006;SDS011;7599;50.748;13.142;2023-03-23T02:56:25;2.67;;;1.13;;
15006;SDS011;7599;50.748;13.142;2023-03-23T02:59:29;3.80;;;1.27;;
15006;SDS011;7599;50.748;13.142;2023-03-23T03:02:32;1.92;;;0.98;;
15006;SDS011;7599;50.748;13.142;2023-03-23T03:05:40;2.22;;;0.98;;
15006;SDS011;7599;50.748;13.142;2023-03-23T03:08:48;2.50;;;1.10;;
15006;SDS011;7599;50.748;13.142;2023-03-23T03:11:56;3.15;;;0.98;;
15006;SDS011;7599;50.748;13.142;2023-03-23T03:15:08;2.38;;;1.00;;
15006;SDS011;7599;50.748;13.142;2023-03-23T03:18:15;1.58;;;0.85;;
15006;SDS011;7599;50.748;13.142;2023-03-23T03:21:25;2.78;;;1.02;;
15006;SDS011;7599;50.748;13.142;2023-03-23T03:24:30;1.50;;;0.90;;
15006;SDS011;7599;50.748;13.142;2023-03-23T03:27:32;2.90;;;1.00;;
15006;SDS011;7599;50.748;13.142;2023-03-23T03:30:35;2.80;;;0.88;;
15006;SDS011;7599;50.748;13.142;2023-03-23T03:33:39;1.60;;;0.90;;
15006;SDS011;7599;50.748;13.142;2023-03-23T03:36:43;3.00;;;1.00;;
15006;SDS011;7599;50.748;13.142;2023-03-23T03:39:45;2.17;;;0.90;;
15006;SDS011;7599;50.748;13.142;2023-03-23T03:42:47;2.58;;;1.15;;
15006;SDS011;7599;50.748;13.142;2023-03-23T03:45:48;2.13;;;1.17;;
15006;SDS011;7599;50.748;13.142;2023-03-23T03:48:50;2.30;;;1.00;;
15006;SDS011;7599;50.748;13.142;2023-03-23T03:51:53;1.83;;;1.05;;
15006;SDS011;7599;50.748;13.142;2023-03-23T03:54:55;2.60;;;1.20;;
15006;SDS011;7599;50.748;13.142;2023-03-23T03:57:56;1.70;;;0.98;;
15006;SDS011;7599;50.748;13.142;2023-03-23T04:00:58;3.30;;;0.95;;
15006;SDS011;7599;50.748;13.142;2023-03-23T04:04:00;3.10;;;1.38;;
15006;SDS011;7599;50.748;13.142;2023-03-23T04:07:03;2.63;;;1.13;;
15006;SDS011;7599;50.748;13.142;2023-03-23T04:10:06;2.70;;;1.17;;
15006;SDS011;7599;50.748;13.142;2023-03-23T04:13:08;2.70;;;1.23;;
15006;SDS011;7599;50.748;13.142;2023-03-23T04:16:09;4.03;;;1.00;;
15006;SDS011;7599;50.748;13.142;2023-03-23T04:19:11;1.52;;;1.00;;
15006;SDS011;7599;50.748;13.142;2023-03-23T04:22:15;1.60;;;0.93;;
15006;SDS011;7599;50.748;13.142;2023-03-23T04:25:18;2.25;;;1.25;;
15006;SDS011;7599;50.748;13.142;2023-03-23T04:28:22;2.33;;;1.23;;
15006;SDS011;7599;50.748;13.142;2023-03-23T04:31:24;2.17;;;1.00;;
15006;SDS011;7599;50.748;13.142;2023-03-23T04:34:26;2.83;;;0.82;;
15006;SDS011;7599;50.748;13.142;2023-03-23T04:37:28;3.38;;;1.55;;
15006;SDS011;7599;50.748;13.142;2023-03-23T04:40:30;2.90;;;1.05;;
15006;SDS011;7599;50.748;13.142;2023-03-23T04:43:31;2.38;;;1.08;;
15006;SDS011;7599;50.748;13.142;2023-03-23T04:46:41;2.70;;;1.02;;
15006;SDS011;7599;50.748;13.142;2023-03-23T04:49:45;2.20;;;0.93;;
15006;SDS011;7599;50.748;13.142;2023-03-23T04:52:48;1.77;;;1.00;;
15006;SDS011;7599;50.748;13.142;2023-03-23T04:55:51;1.92;;;1.00;;
15006;SDS011;7599;50.748;13.142;2023-03-23T04:58:52;2.45;;;1.20;;
15006;SDS011;7599;50.748;13.142;2023-03-23T05:01:54;3.30;;;1.10;;
15006;SDS011;7599;50.748;13.142;2023-03-23T05:04:56;2.78;;;1.10;;
15006;SDS011;7599;50.748;13.142;2023-03-23T05:08:00;2.45;;;1.20;;
15006;SDS011;7599;50.748;13.142;2023-03-23T05:11:02;3.38;;;1.70;;
15006;SDS011;7599;50.748;13.142;2023-03-23T05:14:03;2.00;;;1.10;;
15006;SDS011;7599;50.748;13.142;2023-03-23T05:17:04;2.45;;;0.95;;
15006;SDS011;7599;50.748;13.142;2023-03-23T05:20:07;2.30;;;1.00;;
15006;SDS011;7599;50.748;13.142;2023-03-23T05:23:13;2.08;;;1.13;;
15006;SDS011;7599;50.748;13.142;2023-03-23T05:26:14;2.75;;;1.25;;
15006;SDS011;7599;50.748;13.142;2023-03-23T05:29:16;2.30;;;1.02;;
15006;SDS011;7599;50.748;13.142;2023-03-23T05:32:17;2.03;;;1.02;;
15006;SDS011;7599;50.748;13.142;2023-03-23T05:35:20;2.00;;;1.05;;
15006;SDS011;7599;50.748;13.142;2023-03-23T05:38:25;3.33;;;2.13;;
15006;SDS011;7599;50.748;13.142;2023-03-23T05:41:26;2.28;;;1.10;;
15006;SDS011;7599;50.748;13.142;2023-03-23T05:44:28;1.88;;;0.90;;
15006;SDS011;7599;50.748;13.142;2023-03-23T05:47:29;2.50;;;1.20;;
15006;SDS011;7599;50.748;13.142;2023-03-23T05:50:31;2.45;;;1.20;;
15006;SDS011;7599;50.748;13.142;2023-03-23T05:53:34;1.73;;;0.93;;
15006;SDS011;7599;50.748;13.142;2023-03-23T05:56:35;3.38;;;0.95;;
15006;SDS011;7599;50.748;13.142;2023-03-23T05:59:37;2.03;;;1.02;;
15006;SDS011;7599;50.748;13.142;2023-03-23T06:02:38;2.65;;;1.17;;
15006;SDS011;7599;50.748;13.142;2023-03-23T06:05:43;2.08;;;1.27;;
15006;SDS011;7599;50.748;13.142;2023-03-23T06:08:46;2.00;;;1.10;;
15006;SDS011;7599;50.748;13.142;2023-03-23T06:11:50;3.55;;;1.17;;
15006;SDS011;7599;50.748;13.142;2023-03-23T06:14:51;2.20;;;0.98;;
15006;SDS011;7599;50.748;13.142;2023-03-23T06:17:53;2.88;;;1.17;;
15006;SDS011;7599;50.748;13.142;2023-03-23T06:20:56;3.30;;;1.23;;
15006;SDS011;7599;50.748;13.142;2023-03-23T06:23:59;4.22;;;1.35;;
15006;SDS011;7599;50.748;13.142;2023-03-23T06:27:01;2.92;;;1.40;;
15006;SDS011;7599;50.748;13.142;2023-03-23T06:30:03;3.60;;;1.42;;
15006;SDS011;7599;50.748;13.142;2023-03-23T06:33:05;3.58;;;1.20;;
15006;SDS011;7599;50.748;13.142;2023-03-23T06:36:09;3.40;;;1.40;;
15006;SDS011;7599;50.748;13.142;2023-03-23T06:39:13;1.98;;;1.10;;
15006;SDS011;7599;50.748;13.142;2023-03-23T06:45:17;3.67;;;1.38;;
15006;SDS011;7599;50.748;13.142;2023-03-23T06:48:20;3.20;;;1.20;;
15006;SDS011;7599;50.748;13.142;2023-03-23T06:51:21;4.00;;;1.20;;
15006;SDS011;7599;50.748;13.142;2023-03-23T06:54:24;4.10;;;0.98;;
15006;SDS011;7599;50.748;13.142;2023-03-23T06:57:26;2.55;;;1.20;;
15006;SDS011;7599;50.748;13.142;2023-03-23T07:00:27;1.88;;;1.00;;
15006;SDS011;7599;50.748;13.142;2023-03-23T07:03:29;3.47;;;1.30;;
15006;SDS011;7599;50.748;13.142;2023-03-23T07:06:31;2.33;;;1.08;;
15006;SDS011;7599;50.748;13.142;2023-03-23T07:09:35;3.08;;;1.50;;
15006;SDS011;7599;50.748;13.142;2023-03-23T07:12:37;3.28;;;1.13;;
15006;SDS011;7599;50.748;13.142;2023-03-23T07:15:40;3.47;;;1.45;;
15006;SDS011;7599;50.748;13.142;2023-03-23T07:18:41;1.92;;;1.00;;
15006;SDS011;7599;50.748;13.142;2023-03-23T07:21:43;3.25;;;1.20;;
15006;SDS011;7599;50.748;13.142;2023-03-23T07:24:46;2.60;;;1.00;;
15006;SDS011;7599;50.748;13.142;2023-03-23T07:27:48;3.35;;;1.40;;
15006;SDS011;7599;50.748;13.142;2023-03-23T07:30:49;2.65;;;1.40;;
15006;SDS011;7599;50.748;13.142;2023-03-23T07:33:51;2.92;;;1.13;;
15006;SDS011;7599;50.748;13.142;2023-03-23T07:36:53;3.55;;;1.50;;
15006;SDS011;7599;50.748;13.142;2023-03-23T07:39:57;2.65;;;1.05;;
15006;SDS011;7599;50.748;13.142;2023-03-23T07:42:59;2.58;;;0.90;;
15006;SDS011;7599;50.748;13.142;2023-03-23T07:46:01;2.20;;;1.20;;
15006;SDS011;7599;50.748;13.142;2023-03-23T07:49:02;5.65;;;1.15;;
15006;SDS011;7599;50.748;13.142;2023-03-23T07:52:05;3.95;;;1.25;;
15006;SDS011;7599;50.748;13.142;2023-03-23T07:55:10;4.65;;;2.50;;
15006;SDS011;7599;50.748;13.142;2023-03-23T07:58:17;4.78;;;1.40;;
15006;SDS011;7599;50.748;13.142;2023-03-23T08:01:20;4.00;;;1.30;;
15006;SDS011;7599;50.748;13.142;2023-03-23T08:04:23;4.38;;;1.17;;
15006;SDS011;7599;50.748;13.142;2023-03-23T08:07:24;4.38;;;1.20;;
15006;SDS011;7599;50.748;13.142;2023-03-23T08:10:27;3.00;;;1.10;;
15006;SDS011;7599;50.748;13.142;2023-03-23T08:13:29;2.65;;;1.15;;
15006;SDS011;7599;50.748;13.142;2023-03-23T08:16:31;4.45;;;1.20;;
15006;SDS011;7599;50.748;13.142;2023-03-23T08:19:32;5.47;;;3.20;;
15006;SDS011;7599;50.748;13.142;2023-03-23T08:22:36;3.85;;;1.52;;
15006;SDS011;7599;50.748;13.142;2023-03-23T08:25:41;5.15;;;1.33;;
15006;SDS011;7599;50.748;13.142;2023-03-23T08:28:43;3.53;;;1.20;;
15006;SDS011;7599;50.748;13.142;2023-03-23T08:31:45;5.85;;;1.40;;
15006;SDS011;7599;50.748;13.142;2023-03-23T08:34:47;2.45;;;1.00;;
15006;SDS011;7599;50.748;13.142;2023-03-23T08:37:49;3.90;;;1.30;;
15006;SDS011;7599;50.748;13.142;2023-03-23T08:40:56;6.00;;;2.67;;
15006;SDS011;7599;50.748;13.142;2023-03-23T08:43:58;4.32;;;1.40;;
15006;SDS011;7599;50.748;13.142;2023-03-23T08:47:00;3.05;;;1.17;;
15006;SDS011;7599;50.748;13.142;2023-03-23T08:50:03;3.13;;;1.35;;
15006;SDS011;7599;50.748;13.142;2023-03-23T08:53:06;3.35;;;1.30;;
15006;SDS011;7599;50.748;13.142;2023-03-23T08:56:09;3.97;;;1.10;;
15006;SDS011;7599;50.748;13.142;2023-03-23T08:59:13;3.05;;;1.30;;
15006;SDS011;7599;50.748;13.142;2023-03-23T09:02:14;4.55;;;1.15;;
15006;SDS011;7599;50.748;13.142;2023-03-23T09:05:18;3.13;;;1.98;;
15006;SDS011;7599;50.748;13.142;2023-03-23T09:08:21;3.20;;;1.33;;
15006;SDS011;7599;50.748;13.142;2023-03-23T09:11:24;3.13;;;1.40;;
15006;SDS011;7599;50.748;13.142;2023-03-23T09:14:26;1.88;;;0.95;;
15006;SDS011;7599;50.748;13.142;2023-03-23T09:17:27;4.53;;;1.27;;
15006;SDS011;7599;50.748;13.142;2023-03-23T09:20:29;2.40;;;1.05;;
15006;SDS011;7599;50.748;13.142;2023-03-23T09:23:31;3.85;;;1.15;;
15006;SDS011;7599;50.748;13.142;2023-03-23T09:26:34;3.08;;;1.00;;
15006;SDS011;7599;50.748;13.142;2023-03-23T09:29:37;4.82;;;1.52;;
15006;SDS011;7599;50.748;13.142;2023-03-23T09:32:38;2.53;;;1.10;;
15006;SDS011;7599;50.748;13.142;2023-03-23T09:35:40;3.33;;;1.13;;
15006;SDS011;7599;50.748;13.142;2023-03-23T09:38:42;5.03;;;1.30;;
15006;SDS011;7599;50.748;13.142;2023-03-23T09:41:54;4.65;;;1.40;;
15006;SDS011;7599;50.748;13.142;2023-03-23T09:45:11;2.58;;;1.30;;
15006;SDS011;7599;50.748;13.142;2023-03-23T09:48:25;3.38;;;1.55;;
15006;SDS011;7599;50.748;13.142;2023-03-23T09:51:37;3.97;;;1.20;;
15006;SDS011;7599;50.748;13.142;2023-03-23T09:57:49;3.00;;;1.20;;
15006;SDS011;7599;50.748;13.142;2023-03-23T10:00:56;2.55;;;1.25;;
15006;SDS011;7599;50.748;13.142;2023-03-23T10:04:03;2.20;;;1.10;;
15006;SDS011;7599;50.748;13.142;2023-03-23T10:07:12;3.60;;;1.45;;
15006;SDS011;7599;50.748;13.142;2023-03-23T10:10:16;3.28;;;1.23;;
15006;SDS011;7599;50.748;13.142;2023-03-23T10:13:22;3.00;;;0.90;;
15006;SDS011;7599;50.748;13.142;2023-03-23T10:16:33;3.08;;;1.60;;
15006;SDS011;7599;50.748;13.142;2023-03-23T10:19:39;2.63;;;1.30;;
15006;SDS011;7599;50.748;13.142;2023-03-23T10:22:50;2.58;;;1.02;;
15006;SDS011;7599;50.748;13.142;2023-03-23T10:25:59;3.38;;;1.67;;
15006;SDS011;7599;50.748;13.142;2023-03-23T10:29:10;3.00;;;1.10;;
15006;SDS011;7599;50.748;13.142;2023-03-23T10:32:15;1.92;;;0.98;;
15006;SDS011;7599;50.748;13.142;2023-03-23T10:35:20;3.30;;;1.23;;
15006;SDS011;7599;50.748;13.142;2023-03-23T10:38:27;3.08;;;1.33;;
15006;SDS011;7599;50.748;13.142;2023-03-23T10:41:34;4.03;;;1.35;;
15006;SDS011;7599;50.748;13.142;2023-03-23T10:44:37;1.88;;;1.05;;
15006;SDS011;7599;50.748;13.142;2023-03-23T10:47:39;2.65;;;1.30;;
15006;SDS011;7599;50.748;13.142;2023-03-23T10:50:48;3.80;;;1.10;;
15006;SDS011;7599;50.748;13.142;2023-03-23T10:53:56;2.05;;;1.15;;
15006;SDS011;7599;50.748;13.142;2023-03-23T10:56:59;3.70;;;1.45;;
15006;SDS011;7599;50.748;13.142;2023-03-23T11:00:03;3.20;;;1.10;;
15006;SDS011;7599;50.748;13.142;2023-03-23T11:03:20;2.67;;;1.30;;
15006;SDS011;7599;50.748;13.142;2023-03-23T11:06:26;3.28;;;1.17;;
15006;SDS011;7599;50.748;13.142;2023-03-23T11:09:34;2.40;;;1.25;;
15006;SDS011;7599;50.748;13.142;2023-03-23T11:12:37;4.88;;;1.05;;
15006;SDS011;7599;50.748;13.142;2023-03-23T11:15:40;5.07;;;1.23;;
15006;SDS011;7599;50.748;13.142;2023-03-23T11:18:44;7.43;;;1.15;;
15006;SDS011;7599;50.748;13.142;2023-03-23T11:21:46;5.35;;;1.20;;
15006;SDS011;7599;50.748;13.142;2023-03-23T11:24:51;9.27;;;3.08;;
15006;SDS011;7599;50.748;13.142;2023-03-23T11:27:54;8.60;;;1.35;;
15006;SDS011;7599;50.748;13.142;2023-03-23T11:30:57;7.72;;;1.40;;
15006;SDS011;7599;50.748;13.142;2023-03-23T11:34:02;7.20;;;1.77;;
15006;SDS011;7599;50.748;13.142;2023-03-23T11:37:07;8.13;;;1.83;;
15006;SDS011;7599;50.748;13.142;2023-03-23T11:40:14;11.20;;;2.10;;
15006;SDS011;7599;50.748;13.142;2023-03-23T11:43:19;8.82;;;1.60;;
15006;SDS011;7599;50.748;13.142;2023-03-23T11:46:32;7.18;;;1.58;;
15006;SDS011;7599;50.748;13.142;2023-03-23T11:49:39;5.18;;;1.45;;
15006;SDS011;7599;50.748;13.142;2023-03-23T11:52:46;9.93;;;1.50;;
15006;SDS011;7599;50.748;13.142;2023-03-23T11:55:52;7.07;;;1.40;;
15006;SDS011;7599;50.748;13.142;2023-03-23T11:59:00;8.98;;;1.42;;
15006;SDS011;7599;50.748;13.142;2023-03-23T12:02:08;11.63;;;1.60;;
15006;SDS011;7599;50.748;13.142;2023-03-23T12:05:28;4.93;;;1.33;;
15006;SDS011;7599;50.748;13.142;2023-03-23T12:08:40;6.15;;;1.50;;
15006;SDS011;7599;50.748;13.142;2023-03-23T12:11:53;5.20;;;1.40;;
15006;SDS011;7599;50.748;13.142;2023-03-23T12:15:08;5.22;;;1.42;;
15006;SDS011;7599;50.748;13.142;2023-03-23T12:18:27;5.22;;;1.33;;
15006;SDS011;7599;50.748;13.142;2023-03-23T12:21:37;5.80;;;1.50;;
15006;SDS011;7599;50.748;13.142;2023-03-23T12:24:49;4.53;;;2.05;;
15006;SDS011;7599;50.748;13.142;2023-03-23T12:27:59;5.72;;;1.30;;
15006;SDS011;7599;50.748;13.142;2023-03-23T12:31:08;5.47;;;1.70;;
15006;SDS011;7599;50.748;13.142;2023-03-23T12:34:20;5.28;;;1.40;;
15006;SDS011;7599;50.748;13.142;2023-03-23T12:37:37;4.93;;;1.63;;
15006;SDS011;7599;50.748;13.142;2023-03-23T12:40:51;4.20;;;1.70;;
15006;SDS011;7599;50.748;13.142;2023-03-23T12:44:03;8.25;;;1.73;;
15006;SDS011;7599;50.748;13.142;2023-03-23T12:47:13;4.85;;;1.70;;
15006;SDS011;7599;50.748;13.142;2023-03-23T12:50:28;6.05;;;1.50;;
15006;SDS011;7599;50.748;13.142;2023-03-23T12:53:34;6.07;;;1.83;;
15006;SDS011;7599;50.748;13.142;2023-03-23T12:56:47;4.65;;;2.53;;
15006;SDS011;7599;50.748;13.142;2023-03-23T12:59:53;3.75;;;1.33;;
15006;SDS011;7599;50.748;13.142;2023-03-23T13:02:59;4.60;;;1.50;;
15006;SDS011;7599;50.748;13.142;2023-03-23T13:06:06;4.45;;;1.40;;
15006;SDS011;7599;50.748;13.142;2023-03-23T13:09:15;5.75;;;1.58;;
15006;SDS011;7599;50.748;13.142;2023-03-23T13:12:20;3.95;;;1.50;;
15006;SDS011;7599;50.748;13.142;2023-03-23T13:15:27;4.63;;;1.42;;
15006;SDS011;7599;50.748;13.142;2023-03-23T13:18:37;4.95;;;1.40;;
15006;SDS011;7599;50.748;13.142;2023-03-23T13:21:45;10.18;;;1.98;;
15006;SDS011;7599;50.748;13.142;2023-03-23T13:27:56;16.30;;;2.00;;
15006;SDS011;7599;50.748;13.142;2023-03-23T13:30:59;10.32;;;1.95;;
15006;SDS011;7599;50.748;13.142;2023-03-23T13:34:04;13.75;;;2.20;;
15006;SDS011;7599;50.748;13.142;2023-03-23T13:37:20;5.90;;;1.80;;
15006;SDS011;7599;50.748;13.142;2023-03-23T13:40:24;9.00;;;2.08;;
15006;SDS011;7599;50.748;13.142;2023-03-23T13:43:30;9.10;;;1.80;;
15006;SDS011;7599;50.748;13.142;2023-03-23T13:49:44;6.72;;;1.67;;
15006;SDS011;7599;50.748;13.142;2023-03-23T13:52:52;8.63;;;2.17;;
15006;SDS011;7599;50.748;13.142;2023-03-23T13:56:06;6.70;;;2.13;;
15006;SDS011;7599;50.748;13.142;2023-03-23T13:59:28;11.95;;;1.83;;
15006;SDS011;7599;50.748;13.142;2023-03-23T14:02:34;7.07;;;1.63;;
15006;SDS011;7599;50.748;13.142;2023-03-23T14:05:39;8.38;;;2.85;;
15006;SDS011;7599;50.748;13.142;2023-03-23T14:08:44;7.53;;;1.90;;
15006;SDS011;7599;50.748;13.142;2023-03-23T14:11:50;6.55;;;2.95;;
15006;SDS011;7599;50.748;13.142;2023-03-23T14:14:57;5.47;;;1.90;;
15006;SDS011;7599;50.748;13.142;2023-03-23T14:18:04;3.38;;;1.55;;
15006;SDS011;7599;50.748;13.142;2023-03-23T14:21:11;4.72;;;1.40;;
15006;SDS011;7599;50.748;13.142;2023-03-23T14:24:19;6.93;;;2.08;;
15006;SDS011;7599;50.748;13.142;2023-03-23T14:27:23;5.50;;;1.48;;
15006;SDS011;7599;50.748;13.142;2023-03-23T14:30:25;4.82;;;1.40;;
15006;SDS011;7599;50.748;13.142;2023-03-23T14:33:28;9.95;;;2.00;;
15006;SDS011;7599;50.748;13.142;2023-03-23T14:36:30;4.82;;;1.40;;
15006;SDS011;7599;50.748;13.142;2023-03-23T14:39:35;3.55;;;1.52;;
15006;SDS011;7599;50.748;13.142;2023-03-23T14:42:37;3.78;;;1.40;;
15006;SDS011;7599;50.748;13.142;2023-03-23T14:45:38;4.80;;;2.42;;
15006;SDS011;7599;50.748;13.142;2023-03-23T14:48:40;4.07;;;1.40;;
15006;SDS011;7599;50.748;13.142;2023-03-23T14:51:49;3.58;;;1.60;;
15006;SDS011;7599;50.748;13.142;2023-03-23T14:54:53;4.03;;;1.23;;
15006;SDS011;7599;50.748;13.142;2023-03-23T14:57:55;4.95;;;1.75;;
15006;SDS011;7599;50.748;13.142;2023-03-23T15:00:58;2.88;;;1.40;;
15006;SDS011;7599;50.748;13.142;2023-03-23T15:04:03;4.80;;;1.73;;
15006;SDS011;7599;50.748;13.142;2023-03-23T15:07:08;3.30;;;1.45;;
15006;SDS011;7599;50.748;13.142;2023-03-23T15:10:14;5.35;;;1.60;;
15006;SDS011;7599;50.748;13.142;2023-03-23T15:13:18;3.58;;;1.40;;
15006;SDS011;7599;50.748;13.142;2023-03-23T15:16:20;4.07;;;1.60;;
15006;SDS011;7599;50.748;13.142;2023-03-23T15:19:25;3.75;;;1.10;;
15006;SDS011;7599;50.748;13.142;2023-03-23T15:22:29;5.22;;;1.45;;
15006;SDS011;7599;50.748;13.142;2023-03-23T15:25:34;5.43;;;1.40;;
15006;SDS011;7599;50.748;13.142;2023-03-23T15:28:39;4.47;;;1.33;;
15006;SDS011;7599;50.748;13.142;2023-03-23T15:31:43;5.07;;;1.25;;
15006;SDS011;7599;50.748;13.142;2023-03-23T15:34:46;3.83;;;1.40;;
15006;SDS011;7599;50.748;13.142;2023-03-23T15:37:48;3.22;;;1.25;;
15006;SDS011;7599;50.748;13.142;2023-03-23T15:40:54;2.88;;;1.40;;
15006;SDS011;7599;50.748;13.142;2023-03-23T15:43:57;3.85;;;1.20;;
15006;SDS011;7599;50.748;13.142;2023-03-23T15:47:14;3.10;;;1.30;;
15006;SDS011;7599;50.748;13.142;2023-03-23T15:50:17;5.60;;;1.60;;
15006;SDS011;7599;50.748;13.142;2023-03-23T15:53:28;3.90;;;1.13;;
15006;SDS011;7599;50.748;13.142;2023-03-23T15:56:32;4.13;;;1.58;;
15006;SDS011;7599;50.748;13.142;2023-03-23T15:59:35;3.80;;;1.40;;
15006;SDS011;7599;50.748;13.142;2023-03-23T16:02:37;3.25;;;1.40;;
15006;SDS011;7599;50.748;13.142;2023-03-23T16:05:40;3.38;;;1.30;;
15006;SDS011;7599;50.748;13.142;2023-03-23T16:08:43;3.55;;;1.35;;
15006;SDS011;7599;50.748;13.142;2023-03-23T16:11:56;2.90;;;1.05;;
15006;SDS011;7599;50.748;13.142;2023-03-23T16:14:58;3.75;;;1.80;;
15006;SDS011;7599;50.748;13.142;2023-03-23T16:18:01;6.65;;;1.30;;
15006;SDS011;7599;50.748;13.142;2023-03-23T16:21:04;4.63;;;1.13;;
15006;SDS011;7599;50.748;13.142;2023-03-23T16:30:15;5.15;;;2.53;;
15006;SDS011;7599;50.748;13.142;2023-03-23T16:33:19;4.82;;;2.28;;
15006;SDS011;7599;50.748;13.142;2023-03-23T16:36:21;3.80;;;1.23;;
15006;SDS011;7599;50.748;13.142;2023-03-23T16:39:24;3.95;;;1.42;;
15006;SDS011;7599;50.748;13.142;2023-03-23T16:42:28;6.18;;;1.73;;
15006;SDS011;7599;50.748;13.142;2023-03-23T16:45:30;4.10;;;1.23;;
15006;SDS011;7599;50.748;13.142;2023-03-23T16:48:33;5.05;;;1.70;;
15006;SDS011;7599;50.748;13.142;2023-03-23T16:51:39;4.95;;;1.33;;
15006;SDS011;7599;50.748;13.142;2023-03-23T16:57:47;4.70;;;1.50;;
15006;SDS011;7599;50.748;13.142;2023-03-23T17:00:50;5.35;;;1.50;;
15006;SDS011;7599;50.748;13.142;2023-03-23T17:03:54;4.75;;;1.40;;
15006;SDS011;7599;50.748;13.142;2023-03-23T17:06:56;5.72;;;1.42;;
15006;SDS011;7599;50.748;13.142;2023-03-23T17:10:00;6.13;;;1.77;;
15006;SDS011;7599;50.748;13.142;2023-03-23T17:13:04;3.53;;;1.50;;
15006;SDS011;7599;50.748;13.142;2023-03-23T17:16:07;5.40;;;1.60;;
15006;SDS011;7599;50.748;13.142;2023-03-23T17:22:14;4.50;;;1.35;;
15006;SDS011;7599;50.748;13.142;2023-03-23T17:25:17;6.25;;;1.63;;
15006;SDS011;7599;50.748;13.142;2023-03-23T17:28:21;4.63;;;1.40;;
15006;SDS011;7599;50.748;13.142;2023-03-23T17:31:24;3.67;;;1.35;;
15006;SDS011;7599;50.748;13.142;2023-03-23T17:34:26;3.63;;;1.30;;
15006;SDS011;7599;50.748;13.142;2023-03-23T17:37:29;5.10;;;1.88;;
15006;SDS011;7599;50.748;13.142;2023-03-23T17:40:32;3.47;;;1.17;;
15006;SDS011;7599;50.748;13.142;2023-03-23T17:43:36;3.95;;;1.30;;
15006;SDS011;7599;50.748;13.142;2023-03-23T17:46:41;4.28;;;1.50;;
15006;SDS011;7599;50.748;13.142;2023-03-23T17:49:44;3.85;;;1.40;;
15006;SDS011;7599;50.748;13.142;2023-03-23T17:52:46;5.97;;;3.55;;
15006;SDS011;7599;50.748;13.142;2023-03-23T17:55:50;3.38;;;1.45;;
15006;SDS011;7599;50.748;13.142;2023-03-23T17:58:54;4.28;;;1.48;;
15006;SDS011;7599;50.748;13.142;2023-03-23T18:01:56;3.35;;;1.45;;
15006;SDS011;7599;50.748;13.142;2023-03-23T18:04:59;4.60;;;1.23;;
15006;SDS011;7599;50.748;13.142;2023-03-23T18:08:02;5.00;;;1.40;;
15006;SDS011;7599;50.748;13.142;2023-03-23T18:11:05;4.95;;;1.70;;
15006;SDS011;7599;50.748;13.142;2023-03-23T18:17:13;3.10;;;1.48;;
15006;SDS011;7599;50.748;13.142;2023-03-23T18:20:16;5.15;;;1.80;;
15006;SDS011;7599;50.748;13.142;2023-03-23T18:23:18;3.20;;;1.38;;
15006;SDS011;7599;50.748;13.142;2023-03-23T18:26:21;3.67;;;1.40;;
15006;SDS011;7599;50.748;13.142;2023-03-23T18:29:25;4.43;;;1.60;;
15006;SDS011;7599;50.748;13.142;2023-03-23T18:32:28;5.20;;;1.67;;
15006;SDS011;7599;50.748;13.142;2023-03-23T18:35:31;3.97;;;1.30;;
15006;SDS011;7599;50.748;13.142;2023-03-23T18:38:34;4.05;;;1.52;;
15006;SDS011;7599;50.748;13.142;2023-03-23T18:41:39;3.45;;;1.40;;
15006;SDS011;7599;50.748;13.142;2023-03-23T18:44:43;4.03;;;1.80;;
15006;SDS011;7599;50.748;13.142;2023-03-23T18:47:46;3.35;;;1.40;;
15006;SDS011;7599;50.748;13.142;2023-03-23T18:50:49;3.53;;;1.63;;
15006;SDS011;7599;50.748;13.142;2023-03-23T18:53:53;4.30;;;1.50;;
15006;SDS011;7599;50.748;13.142;2023-03-23T18:56:55;5.07;;;2.88;;
15006;SDS011;7599;50.748;13.142;2023-03-23T19:00:02;3.95;;;1.42;;